Lake Village, AR (71653)

9:07 AM CDT on October 02, 2014 (GMT -0500)
Mid Delta Regional | Change Station
CLOSE
Current Station
Airport
Location: Greenville,
Elevation: 131 ft
Nearby Weather Stations

Elev 131 ft 33.48 °N, 90.99 °W | Updated 7 minutes ago

Overcast
Overcast
80 °F
Feels Like 84 °F
N
12
Wind Variable Wind from South

Today
High -- | Low -- °F
--% Chance of Precip.
Yesterday
High -- | Low -- °F
Precip. -- in
7:00 AM 6:48 PM
First Quarter, 59% visible
Pressure 29.95 in
Visibility 9.0 miles
Clouds Mostly Cloudy 1100 ft
Heat Index 84 °F
Dew Point 73 °F
Humidity 79%
Rainfall 0.00 in
Snow Depth Not available.
UV 1 out of 12
Pollen 7.30 out of 12
Air Quality Not available.
Flu Activity Not available.
SPECI KGLH 021400Z AUTO 18010KT 9SM BKN011 27/23 A2995 RMK AO2 T02670228

More Conditions Fewer Conditions

Pressure 29.95 in
Visibility 9.0 miles
Clouds Mostly Cloudy 1100 ft
Heat Index 84 °F
Dew Point 73 °F
Humidity 79%
Rainfall 0.00 in
Snow Depth Not available.
UV 1 out of 12
Pollen 7.30 out of 12
Air Quality Not available.
Flu Activity Not available.
SPECI KGLH 021400Z AUTO 18010KT 9SM BKN011 27/23 A2995 RMK AO2 T02670228

More Conditions Fewer Conditions

10-Day Weather Forecast

Almanac

Astronomy

Oct. 02, 2014 Rise Set
Actual Time 7:00 AM CDT 6:48 PM CDT
Civil Twilight 6:35 AM CDT 7:12 PM CDT
Nautical Twilight 6:06 AM CDT 7:41 PM CDT
Astronomical Twilight 5:37 AM CDT 8:10 PM CDT
Moon 2:39 PM CDT 12:33 AM CDT
Length of Visible Light 12h 37m
Length of Day
11h 48m
Tomorrow will be 2m 2s shorter.
First Quarter, 59% of the Moon is Illuminated
Today
First Quarter
Oct 8
Full
Oct 15
Last Quarter
Oct 23
New
Oct 30
First Quarter

Today's Extremes

State Highs State Lows

Community

WunderPhotos

Upload Photos

1,758,247 photos uploaded!

WunderBlogs® & News

Nearby

Snow Depth

Station Depth Elevation
No new snow has been reported.

Earthquake Activity

City Distance Mag. Time & Date
No recent earthquake activity has been reported nearby.
Minimum magnitude displayed is 2.5.

Coastal Water Temperatures

Place Temperature
No Stations Reporting

Nearby Weather Stations